sensor_id;sensor_type;location;lat;lon;timestamp;pressure;altitude;pressure_sealevel;temperature;humidity
74327;BME280;62745;51.060;13.786;2023-02-22T00:01:27;100379.34;;;9.22;79.19
74327;BME280;62745;51.060;13.786;2023-02-22T00:04:00;100383.31;;;9.11;79.24
74327;BME280;62745;51.060;13.786;2023-02-22T00:06:26;100378.34;;;9.08;80.01
74327;BME280;62745;51.060;13.786;2023-02-22T00:08:52;100387.53;;;9.20;78.87
74327;BME280;62745;51.060;13.786;2023-02-22T00:11:17;100381.38;;;9.20;78.82
74327;BME280;62745;51.060;13.786;2023-02-22T00:13:44;100384.13;;;9.12;79.17
74327;BME280;62745;51.060;13.786;2023-02-22T00:16:18;100387.34;;;9.22;79.05
74327;BME280;62745;51.060;13.786;2023-02-22T00:18:44;100393.09;;;9.33;78.37
74327;BME280;62745;51.060;13.786;2023-02-22T00:21:11;100382.78;;;9.30;78.54
74327;BME280;62745;51.060;13.786;2023-02-22T00:23:40;100380.97;;;9.31;78.17
74327;BME280;62745;51.060;13.786;2023-02-22T00:26:07;100385.00;;;9.27;78.18
74327;BME280;62745;51.060;13.786;2023-02-22T00:28:36;100388.59;;;9.34;78.03
74327;BME280;62745;51.060;13.786;2023-02-22T00:31:03;100371.97;;;9.47;78.13
74327;BME280;62745;51.060;13.786;2023-02-22T00:33:31;100371.41;;;9.37;78.35
74327;BME280;62745;51.060;13.786;2023-02-22T00:35:56;100386.38;;;9.38;79.10
74327;BME280;62745;51.060;13.786;2023-02-22T00:38:21;100373.97;;;9.30;79.57
74327;BME280;62745;51.060;13.786;2023-02-22T00:40:46;100374.88;;;9.37;79.28
74327;BME280;62745;51.060;13.786;2023-02-22T00:43:21;100371.50;;;9.05;79.88
74327;BME280;62745;51.060;13.786;2023-02-22T00:45:46;100376.69;;;9.22;79.77
74327;BME280;62745;51.060;13.786;2023-02-22T00:48:13;100377.59;;;9.14;79.75
74327;BME280;62745;51.060;13.786;2023-02-22T00:50:39;100383.00;;;9.06;80.28
74327;BME280;62745;51.060;13.786;2023-02-22T00:53:05;100374.75;;;9.16;79.82
74327;BME280;62745;51.060;13.786;2023-02-22T00:55:34;100375.66;;;9.08;80.50
74327;BME280;62745;51.060;13.786;2023-02-22T00:58:00;100375.19;;;9.04;80.99
74327;BME280;62745;51.060;13.786;2023-02-22T01:00:39;100378.38;;;9.00;81.34
74327;BME280;62745;51.060;13.786;2023-02-22T01:03:07;100377.78;;;8.90;81.20
74327;BME280;62745;51.060;13.786;2023-02-22T01:05:33;100365.72;;;9.02;80.52
74327;BME280;62745;51.060;13.786;2023-02-22T01:07:59;100382.47;;;9.11;80.71
74327;BME280;62745;51.060;13.786;2023-02-22T01:10:27;100375.66;;;9.08;80.65
74327;BME280;62745;51.060;13.786;2023-02-22T01:12:55;100379.50;;;9.05;80.92
74327;BME280;62745;51.060;13.786;2023-02-22T01:15:22;100360.75;;;8.99;80.82
74327;BME280;62745;51.060;13.786;2023-02-22T01:17:50;100378.75;;;8.97;81.07
74327;BME280;62745;51.060;13.786;2023-02-22T01:20:16;100378.56;;;8.98;81.43
74327;BME280;62745;51.060;13.786;2023-02-22T01:22:45;100376.66;;;8.84;81.78
74327;BME280;62745;51.060;13.786;2023-02-22T01:25:14;100368.13;;;8.89;81.47
74327;BME280;62745;51.060;13.786;2023-02-22T01:27:40;100377.28;;;8.94;81.52
74327;BME280;62745;51.060;13.786;2023-02-22T01:30:06;100373.34;;;9.05;80.86
74327;BME280;62745;51.060;13.786;2023-02-22T01:32:35;100373.28;;;9.13;79.92
74327;BME280;62745;51.060;13.786;2023-02-22T01:35:03;100371.75;;;8.96;81.41
74327;BME280;62745;51.060;13.786;2023-02-22T01:37:30;100366.03;;;9.07;80.97
74327;BME280;62745;51.060;13.786;2023-02-22T01:39:55;100366.47;;;9.11;80.83
74327;BME280;62745;51.060;13.786;2023-02-22T01:42:21;100367.19;;;9.04;80.40
74327;BME280;62745;51.060;13.786;2023-02-22T01:47:52;100364.88;;;9.01;80.65
74327;BME280;62745;51.060;13.786;2023-02-22T01:50:17;100359.28;;;8.96;81.14
74327;BME280;62745;51.060;13.786;2023-02-22T01:52:42;100367.59;;;9.16;80.67
74327;BME280;62745;51.060;13.786;2023-02-22T01:55:08;100355.69;;;9.27;79.99
74327;BME280;62745;51.060;13.786;2023-02-22T01:57:36;100361.38;;;9.39;79.24
74327;BME280;62745;51.060;13.786;2023-02-22T02:00:08;100361.03;;;9.42;79.18
74327;BME280;62745;51.060;13.786;2023-02-22T02:02:35;100362.44;;;9.15;80.66
74327;BME280;62745;51.060;13.786;2023-02-22T02:05:01;100361.75;;;8.98;81.77
74327;BME280;62745;51.060;13.786;2023-02-22T02:07:26;100361.28;;;8.94;81.89
74327;BME280;62745;51.060;13.786;2023-02-22T02:09:57;100357.63;;;8.95;81.48
74327;BME280;62745;51.060;13.786;2023-02-22T02:12:24;100356.94;;;9.16;80.57
74327;BME280;62745;51.060;13.786;2023-02-22T02:14:50;100353.22;;;9.02;81.43
74327;BME280;62745;51.060;13.786;2023-02-22T02:17:18;100360.16;;;8.89;82.15
74327;BME280;62745;51.060;13.786;2023-02-22T02:20:07;100351.88;;;8.84;81.88
74327;BME280;62745;51.060;13.786;2023-02-22T02:22:56;100352.00;;;8.90;81.46
74327;BME280;62745;51.060;13.786;2023-02-22T02:37:08;100339.38;;;9.22;80.76
74327;BME280;62745;51.060;13.786;2023-02-22T02:39:45;100342.69;;;9.09;81.19
74327;BME280;62745;51.060;13.786;2023-02-22T02:42:15;100335.97;;;9.13;80.94
74327;BME280;62745;51.060;13.786;2023-02-22T02:44:48;100338.19;;;9.10;80.81
74327;BME280;62745;51.060;13.786;2023-02-22T02:47:22;100332.66;;;9.11;81.38
74327;BME280;62745;51.060;13.786;2023-02-22T02:49:55;100338.41;;;9.00;81.50
74327;BME280;62745;51.060;13.786;2023-02-22T02:52:24;100333.16;;;8.92;82.01
74327;BME280;62745;51.060;13.786;2023-02-22T02:54:51;100335.84;;;8.92;82.24
74327;BME280;62745;51.060;13.786;2023-02-22T02:57:18;100337.97;;;8.96;81.98
74327;BME280;62745;51.060;13.786;2023-02-22T02:59:44;100339.09;;;9.17;80.82
74327;BME280;62745;51.060;13.786;2023-02-22T03:02:26;100330.19;;;9.10;81.06
74327;BME280;62745;51.060;13.786;2023-02-22T03:05:21;100332.34;;;9.06;80.83
74327;BME280;62745;51.060;13.786;2023-02-22T03:08:00;100326.47;;;8.96;80.96
74327;BME280;62745;51.060;13.786;2023-02-22T03:10:44;100330.81;;;9.12;81.32
74327;BME280;62745;51.060;13.786;2023-02-22T03:13:22;100325.97;;;9.15;80.59
74327;BME280;62745;51.060;13.786;2023-02-22T03:16:02;100334.03;;;9.07;81.67
74327;BME280;62745;51.060;13.786;2023-02-22T03:18:55;100317.75;;;9.02;81.53
74327;BME280;62745;51.060;13.786;2023-02-22T03:21:48;100306.38;;;9.08;80.53
74327;BME280;62745;51.060;13.786;2023-02-22T03:24:22;100326.88;;;9.22;80.97
74327;BME280;62745;51.060;13.786;2023-02-22T03:26:55;100313.47;;;9.16;80.65
74327;BME280;62745;51.060;13.786;2023-02-22T03:29:23;100321.84;;;9.27;80.35
74327;BME280;62745;51.060;13.786;2023-02-22T03:31:54;100311.25;;;9.19;80.44
74327;BME280;62745;51.060;13.786;2023-02-22T03:34:28;100301.16;;;9.15;80.34
74327;BME280;62745;51.060;13.786;2023-02-22T03:37:14;100323.19;;;9.23;80.55
74327;BME280;62745;51.060;13.786;2023-02-22T03:39:42;100317.63;;;9.33;80.79
74327;BME280;62745;51.060;13.786;2023-02-22T03:42:16;100328.94;;;9.35;80.50
74327;BME280;62745;51.060;13.786;2023-02-22T03:44:45;100329.03;;;9.27;80.93
74327;BME280;62745;51.060;13.786;2023-02-22T03:47:16;100317.72;;;9.25;81.90
74327;BME280;62745;51.060;13.786;2023-02-22T03:49:55;100306.16;;;8.95;82.46
74327;BME280;62745;51.060;13.786;2023-02-22T03:52:22;100309.06;;;9.08;81.97
74327;BME280;62745;51.060;13.786;2023-02-22T03:54:51;100317.47;;;8.97;83.11
74327;BME280;62745;51.060;13.786;2023-02-22T03:57:25;100317.69;;;9.10;82.49
74327;BME280;62745;51.060;13.786;2023-02-22T03:59:51;100311.25;;;9.19;82.37
74327;BME280;62745;51.060;13.786;2023-02-22T04:02:17;100304.38;;;9.10;81.89
74327;BME280;62745;51.060;13.786;2023-02-22T04:04:44;100296.53;;;8.94;82.92
74327;BME280;62745;51.060;13.786;2023-02-22T04:07:09;100296.28;;;8.81;82.90
74327;BME280;62745;51.060;13.786;2023-02-22T04:09:34;100310.34;;;8.89;83.04
74327;BME280;62745;51.060;13.786;2023-02-22T04:12:00;100298.03;;;8.88;82.96
74327;BME280;62745;51.060;13.786;2023-02-22T04:14:25;100305.84;;;8.90;82.75
74327;BME280;62745;51.060;13.786;2023-02-22T04:16:50;100304.47;;;8.79;83.40
74327;BME280;62745;51.060;13.786;2023-02-22T04:19:15;100301.19;;;8.92;82.65
74327;BME280;62745;51.060;13.786;2023-02-22T04:21:41;100298.63;;;8.98;82.13
74327;BME280;62745;51.060;13.786;2023-02-22T04:24:06;100306.25;;;9.01;82.15
74327;BME280;62745;51.060;13.786;2023-02-22T04:26:31;100303.75;;;8.85;82.25
74327;BME280;62745;51.060;13.786;2023-02-22T04:28:57;100296.25;;;8.66;83.93
74327;BME280;62745;51.060;13.786;2023-02-22T04:31:22;100304.13;;;8.59;84.18
74327;BME280;62745;51.060;13.786;2023-02-22T04:33:47;100297.84;;;8.52;84.33
74327;BME280;62745;51.060;13.786;2023-02-22T04:36:13;100294.00;;;8.55;84.38
74327;BME280;62745;51.060;13.786;2023-02-22T04:38:40;100296.16;;;8.28;84.58
74327;BME280;62745;51.060;13.786;2023-02-22T04:41:05;100298.00;;;8.28;85.34
74327;BME280;62745;51.060;13.786;2023-02-22T04:43:30;100307.97;;;8.26;85.61
74327;BME280;62745;51.060;13.786;2023-02-22T04:45:55;100283.50;;;8.30;85.10
74327;BME280;62745;51.060;13.786;2023-02-22T04:48:21;100307.91;;;8.42;84.68
74327;BME280;62745;51.060;13.786;2023-02-22T04:50:46;100296.44;;;8.33;84.73
74327;BME280;62745;51.060;13.786;2023-02-22T04:53:11;100289.59;;;8.39;84.15
74327;BME280;62745;51.060;13.786;2023-02-22T04:55:37;100291.22;;;8.48;84.16
74327;BME280;62745;51.060;13.786;2023-02-22T04:58:02;100295.97;;;8.61;83.89
74327;BME280;62745;51.060;13.786;2023-02-22T05:00:27;100267.78;;;8.66;83.30
74327;BME280;62745;51.060;13.786;2023-02-22T05:02:52;100285.53;;;8.74;83.04
74327;BME280;62745;51.060;13.786;2023-02-22T05:05:19;100296.13;;;8.59;85.09
74327;BME280;62745;51.060;13.786;2023-02-22T05:07:48;100298.44;;;8.62;84.95
74327;BME280;62745;51.060;13.786;2023-02-22T05:10:14;100296.31;;;8.58;84.69
74327;BME280;62745;51.060;13.786;2023-02-22T05:12:40;100295.00;;;8.23;86.13
74327;BME280;62745;51.060;13.786;2023-02-22T05:15:07;100293.69;;;8.50;85.55
74327;BME280;62745;51.060;13.786;2023-02-22T05:17:33;100304.78;;;8.61;85.51
74327;BME280;62745;51.060;13.786;2023-02-22T05:19:59;100245.06;;;8.10;85.46
74327;BME280;62745;51.060;13.786;2023-02-22T05:22:24;100304.72;;;8.47;85.61
74327;BME280;62745;51.060;13.786;2023-02-22T05:24:49;100292.34;;;8.23;86.84
74327;BME280;62745;51.060;13.786;2023-02-22T05:27:19;100308.09;;;8.32;87.17
74327;BME280;62745;51.060;13.786;2023-02-22T05:29:44;100303.28;;;8.36;87.01
74327;BME280;62745;51.060;13.786;2023-02-22T05:32:10;100289.38;;;8.49;85.84
74327;BME280;62745;51.060;13.786;2023-02-22T05:34:37;100297.91;;;8.67;85.13
74327;BME280;62745;51.060;13.786;2023-02-22T05:37:02;100297.84;;;8.52;86.09
74327;BME280;62745;51.060;13.786;2023-02-22T05:39:28;100299.03;;;8.50;86.08
74327;BME280;62745;51.060;13.786;2023-02-22T05:41:53;100297.56;;;8.47;86.88
74327;BME280;62745;51.060;13.786;2023-02-22T05:44:18;100307.63;;;8.60;85.83
74327;BME280;62745;51.060;13.786;2023-02-22T05:46:44;100299.56;;;8.68;85.09
74327;BME280;62745;51.060;13.786;2023-02-22T05:49:09;100296.66;;;8.78;84.36
74327;BME280;62745;51.060;13.786;2023-02-22T05:51:34;100300.38;;;8.68;85.33
74327;BME280;62745;51.060;13.786;2023-02-22T05:53:59;100298.81;;;8.59;85.86
74327;BME280;62745;51.060;13.786;2023-02-22T05:56:27;100297.84;;;8.52;86.14
74327;BME280;62745;51.060;13.786;2023-02-22T05:58:53;100300.88;;;8.49;86.74
74327;BME280;62745;51.060;13.786;2023-02-22T06:01:18;100305.75;;;8.37;87.22
74327;BME280;62745;51.060;13.786;2023-02-22T06:03:48;100292.41;;;8.46;86.39
74327;BME280;62745;51.060;13.786;2023-02-22T06:06:14;100301.69;;;8.50;85.75
74327;BME280;62745;51.060;13.786;2023-02-22T06:08:40;100290.28;;;8.64;84.52
74327;BME280;62745;51.060;13.786;2023-02-22T06:11:05;100305.34;;;8.71;85.17
74327;BME280;62745;51.060;13.786;2023-02-22T06:13:30;100308.78;;;8.80;84.85
74327;BME280;62745;51.060;13.786;2023-02-22T06:15:55;100311.72;;;8.85;84.45
74327;BME280;62745;51.060;13.786;2023-02-22T06:18:21;100310.38;;;8.66;85.59
74327;BME280;62745;51.060;13.786;2023-02-22T06:20:46;100314.88;;;8.43;86.24
74327;BME280;62745;51.060;13.786;2023-02-22T06:23:11;100319.56;;;8.33;87.03
74327;BME280;62745;51.060;13.786;2023-02-22T06:25:36;100306.66;;;8.22;87.74
74327;BME280;62745;51.060;13.786;2023-02-22T06:28:02;100313.31;;;8.26;87.59
74327;BME280;62745;51.060;13.786;2023-02-22T06:30:29;100315.78;;;8.27;87.74
74327;BME280;62745;51.060;13.786;2023-02-22T06:32:54;100307.78;;;8.35;87.70
74327;BME280;62745;51.060;13.786;2023-02-22T06:35:20;100314.13;;;10.85;100.00
74327;BME280;62745;51.060;13.786;2023-02-22T06:37:45;100320.91;;;11.71;99.93
74327;BME280;62745;51.060;13.786;2023-02-22T06:40:12;100309.44;;;12.39;92.78
74327;BME280;62745;51.060;13.786;2023-02-22T06:42:38;100316.75;;;12.98;83.80
74327;BME280;62745;51.060;13.786;2023-02-22T06:45:03;100319.84;;;13.61;91.10
74327;BME280;62745;51.060;13.786;2023-02-22T06:47:29;100323.00;;;14.02;93.72
74327;BME280;62745;51.060;13.786;2023-02-22T06:49:55;100317.97;;;14.89;93.48
74327;BME280;62745;51.060;13.786;2023-02-22T06:52:22;100321.16;;;14.79;74.61
74327;BME280;62745;51.060;13.786;2023-02-22T06:54:48;100322.00;;;14.35;70.81
74327;BME280;62745;51.060;13.786;2023-02-22T06:57:13;100328.88;;;14.31;69.16
74327;BME280;62745;51.060;13.786;2023-02-22T06:59:39;100328.31;;;14.15;68.69
74327;BME280;62745;51.060;13.786;2023-02-22T07:02:05;100324.84;;;14.02;67.65
74327;BME280;62745;51.060;13.786;2023-02-22T07:04:30;100339.94;;;14.03;68.61
74327;BME280;62745;51.060;13.786;2023-02-22T07:06:55;100331.09;;;13.89;68.61
74327;BME280;62745;51.060;13.786;2023-02-22T07:09:20;100333.56;;;13.97;68.23
74327;BME280;62745;51.060;13.786;2023-02-22T07:11:46;100333.53;;;14.04;66.21
74327;BME280;62745;51.060;13.786;2023-02-22T07:14:11;100337.38;;;13.50;68.42
74327;BME280;62745;51.060;13.786;2023-02-22T07:16:36;100323.38;;;13.35;68.96
74327;BME280;62745;51.060;13.786;2023-02-22T07:19:01;100341.75;;;13.18;69.42
74327;BME280;62745;51.060;13.786;2023-02-22T07:21:28;100339.44;;;13.08;68.98
74327;BME280;62745;51.060;13.786;2023-02-22T07:23:54;100333.50;;;13.33;69.56
74327;BME280;62745;51.060;13.786;2023-02-22T07:26:21;100341.31;;;13.41;68.92
74327;BME280;62745;51.060;13.786;2023-02-22T07:28:46;100335.34;;;13.25;68.42
74327;BME280;62745;51.060;13.786;2023-02-22T07:31:12;100348.75;;;13.19;67.01
74327;BME280;62745;51.060;13.786;2023-02-22T07:33:38;100336.75;;;13.41;70.13
74327;BME280;62745;51.060;13.786;2023-02-22T07:36:03;100347.88;;;13.71;67.57
74327;BME280;62745;51.060;13.786;2023-02-22T07:38:30;100348.88;;;13.83;67.20
74327;BME280;62745;51.060;13.786;2023-02-22T07:40:55;100348.94;;;13.64;66.50
74327;BME280;62745;51.060;13.786;2023-02-22T07:43:26;100347.22;;;13.76;65.86
74327;BME280;62745;51.060;13.786;2023-02-22T07:45:54;100342.72;;;13.57;67.04
74327;BME280;62745;51.060;13.786;2023-02-22T07:48:21;100350.34;;;13.79;67.94
74327;BME280;62745;51.060;13.786;2023-02-22T07:50:46;100349.91;;;13.76;67.32
74327;BME280;62745;51.060;13.786;2023-02-22T07:53:23;100344.50;;;13.96;67.42
74327;BME280;62745;51.060;13.786;2023-02-22T07:55:49;100340.34;;;14.00;64.17
74327;BME280;62745;51.060;13.786;2023-02-22T07:58:20;100329.84;;;13.92;64.70
74327;BME280;62745;51.060;13.786;2023-02-22T08:00:45;100338.44;;;14.13;65.04
74327;BME280;62745;51.060;13.786;2023-02-22T08:03:16;100342.44;;;13.91;64.52
74327;BME280;62745;51.060;13.786;2023-02-22T08:05:45;100338.84;;;14.17;64.55
74327;BME280;62745;51.060;13.786;2023-02-22T08:08:11;100340.44;;;13.80;65.35
74327;BME280;62745;51.060;13.786;2023-02-22T08:10:36;100333.91;;;14.07;65.61
74327;BME280;62745;51.060;13.786;2023-02-22T08:13:03;100336.38;;;14.15;63.73
74327;BME280;62745;51.060;13.786;2023-02-22T08:15:33;100336.88;;;13.86;64.52
74327;BME280;62745;51.060;13.786;2023-02-22T08:18:00;100337.28;;;13.90;64.92
74327;BME280;62745;51.060;13.786;2023-02-22T08:20:26;100330.78;;;14.10;65.23
74327;BME280;62745;51.060;13.786;2023-02-22T08:22:52;100334.69;;;14.21;64.73
74327;BME280;62745;51.060;13.786;2023-02-22T08:25:19;100337.63;;;14.06;64.59
74327;BME280;62745;51.060;13.786;2023-02-22T08:27:45;100334.34;;;14.11;65.41
74327;BME280;62745;51.060;13.786;2023-02-22T08:30:16;100336.59;;;14.14;64.77
74327;BME280;62745;51.060;13.786;2023-02-22T08:32:44;100341.19;;;14.00;65.05
74327;BME280;62745;51.060;13.786;2023-02-22T08:35:11;100331.81;;;13.51;64.07
74327;BME280;62745;51.060;13.786;2023-02-22T08:37:41;100336.41;;;12.24;68.33
74327;BME280;62745;51.060;13.786;2023-02-22T08:40:06;100341.63;;;11.91;70.19
74327;BME280;62745;51.060;13.786;2023-02-22T08:42:32;100334.84;;;11.60;70.55
74327;BME280;62745;51.060;13.786;2023-02-22T08:44:57;100344.03;;;11.23;71.67
74327;BME280;62745;51.060;13.786;2023-02-22T08:47:22;100340.94;;;11.20;72.26
74327;BME280;62745;51.060;13.786;2023-02-22T08:49:48;100342.88;;;10.83;73.90
74327;BME280;62745;51.060;13.786;2023-02-22T08:52:13;100314.63;;;10.52;74.25
74327;BME280;62745;51.060;13.786;2023-02-22T08:54:38;100335.06;;;10.60;74.74
74327;BME280;62745;51.060;13.786;2023-02-22T08:57:03;100333.31;;;10.31;75.92
74327;BME280;62745;51.060;13.786;2023-02-22T08:59:30;100341.59;;;10.58;75.66
74327;BME280;62745;51.060;13.786;2023-02-22T09:01:55;100334.59;;;10.57;75.79
74327;BME280;62745;51.060;13.786;2023-02-22T09:04:20;100334.28;;;10.88;74.39
74327;BME280;62745;51.060;13.786;2023-02-22T09:06:45;100320.47;;;10.84;74.14
74327;BME280;62745;51.060;13.786;2023-02-22T09:09:16;100334.00;;;10.76;74.97
74327;BME280;62745;51.060;13.786;2023-02-22T09:11:43;100324.94;;;10.55;75.32
74327;BME280;62745;51.060;13.786;2023-02-22T09:14:08;100330.66;;;10.74;74.69
74327;BME280;62745;51.060;13.786;2023-02-22T09:16:33;100327.59;;;10.98;74.02
74327;BME280;62745;51.060;13.786;2023-02-22T09:19:02;100336.13;;;10.87;73.25
74327;BME280;62745;51.060;13.786;2023-02-22T09:21:27;100337.66;;;10.75;74.44
74327;BME280;62745;51.060;13.786;2023-02-22T09:23:53;100335.63;;;10.98;73.58
74327;BME280;62745;51.060;13.786;2023-02-22T09:26:18;100328.09;;;11.36;73.42
74327;BME280;62745;51.060;13.786;2023-02-22T09:28:44;100332.41;;;11.37;72.12
74327;BME280;62745;51.060;13.786;2023-02-22T09:31:09;100322.81;;;11.43;72.21
74327;BME280;62745;51.060;13.786;2023-02-22T09:33:34;100330.03;;;11.21;72.07
74327;BME280;62745;51.060;13.786;2023-02-22T09:36:00;100314.66;;;11.02;71.56
74327;BME280;62745;51.060;13.786;2023-02-22T09:38:26;100321.38;;;11.19;71.42
74327;BME280;62745;51.060;13.786;2023-02-22T09:41:06;100326.09;;;11.45;71.03
74327;BME280;62745;51.060;13.786;2023-02-22T09:46:34;100309.28;;;11.58;69.91
74327;BME280;62745;51.060;13.786;2023-02-22T09:49:06;100311.53;;;11.89;69.79
74327;BME280;62745;51.060;13.786;2023-02-22T09:51:45;100310.13;;;11.93;70.84
74327;BME280;62745;51.060;13.786;2023-02-22T09:54:20;100298.41;;;11.94;69.59
74327;BME280;62745;51.060;13.786;2023-02-22T09:56:49;100307.91;;;11.68;70.37
74327;BME280;62745;51.060;13.786;2023-02-22T09:59:22;100284.47;;;11.70;71.05
74327;BME280;62745;51.060;13.786;2023-02-22T10:01:56;100277.38;;;11.91;70.49
74327;BME280;62745;51.060;13.786;2023-02-22T10:04:35;100281.84;;;12.38;69.51
74327;BME280;62745;51.060;13.786;2023-02-22T10:09:38;100285.13;;;12.27;69.89
74327;BME280;62745;51.060;13.786;2023-02-22T10:12:16;100283.06;;;12.42;68.73
74327;BME280;62745;51.060;13.786;2023-02-22T10:15:06;100279.63;;;12.75;68.45
74327;BME280;62745;51.060;13.786;2023-02-22T10:20:18;100290.13;;;12.76;68.46
74327;BME280;62745;51.060;13.786;2023-02-22T10:25:22;100275.28;;;13.00;65.42
74327;BME280;62745;51.060;13.786;2023-02-22T10:28:19;100271.38;;;13.29;63.26
74327;BME280;62745;51.060;13.786;2023-02-22T10:30:53;100279.44;;;12.96;63.60
74327;BME280;62745;51.060;13.786;2023-02-22T10:33:45;100276.31;;;12.86;62.51
74327;BME280;62745;51.060;13.786;2023-02-22T10:36:17;100277.91;;;12.34;65.64
74327;BME280;62745;51.060;13.786;2023-02-22T10:38:52;100269.50;;;12.50;64.67
74327;BME280;62745;51.060;13.786;2023-02-22T10:41:33;100271.59;;;12.61;64.77
74327;BME280;62745;51.060;13.786;2023-02-22T10:44:01;100267.25;;;12.80;65.21
74327;BME280;62745;51.060;13.786;2023-02-22T10:46:28;100273.84;;;12.98;64.52
74327;BME280;62745;51.060;13.786;2023-02-22T10:48:58;100254.06;;;12.85;63.90
74327;BME280;62745;51.060;13.786;2023-02-22T10:51:26;100264.75;;;13.05;63.67
74327;BME280;62745;51.060;13.786;2023-02-22T10:54:04;100252.81;;;12.94;63.18
74327;BME280;62745;51.060;13.786;2023-02-22T10:56:53;100254.03;;;12.39;63.56
74327;BME280;62745;51.060;13.786;2023-02-22T10:59:33;100267.00;;;12.35;63.57
74327;BME280;62745;51.060;13.786;2023-02-22T11:02:06;100269.88;;;12.41;63.90
74327;BME280;62745;51.060;13.786;2023-02-22T11:04:51;100266.19;;;12.35;64.16
74327;BME280;62745;51.060;13.786;2023-02-22T11:07:23;100262.22;;;12.11;64.77
74327;BME280;62745;51.060;13.786;2023-02-22T11:10:01;100262.03;;;12.19;65.08
74327;BME280;62745;51.060;13.786;2023-02-22T11:12:30;100256.44;;;12.14;65.07
74327;BME280;62745;51.060;13.786;2023-02-22T11:14:56;100248.69;;;12.65;64.54
74327;BME280;62745;51.060;13.786;2023-02-22T11:17:28;100243.13;;;12.80;63.13
74327;BME280;62745;51.060;13.786;2023-02-22T11:19:55;100244.16;;;12.86;62.17
74327;BME280;62745;51.060;13.786;2023-02-22T11:22:27;100243.31;;;13.05;61.97
74327;BME280;62745;51.060;13.786;2023-02-22T11:24:57;100241.69;;;12.98;63.51
74327;BME280;62745;51.060;13.786;2023-02-22T11:27:35;100238.75;;;13.32;62.40
74327;BME280;62745;51.060;13.786;2023-02-22T11:30:25;100244.50;;;13.42;60.55
74327;BME280;62745;51.060;13.786;2023-02-22T11:35:58;100226.59;;;13.30;60.37
74327;BME280;62745;51.060;13.786;2023-02-22T11:38:32;100231.78;;;13.18;61.05
74327;BME280;62745;51.060;13.786;2023-02-22T11:43:47;100216.22;;;13.40;60.09
74327;BME280;62745;51.060;13.786;2023-02-22T11:46:21;100224.41;;;13.58;61.01
74327;BME280;62745;51.060;13.786;2023-02-22T11:51:39;100219.44;;;13.68;59.97
74327;BME280;62745;51.060;13.786;2023-02-22T11:54:31;100213.41;;;13.73;58.74
74327;BME280;62745;51.060;13.786;2023-02-22T11:57:14;100216.91;;;13.80;57.86
74327;BME280;62745;51.060;13.786;2023-02-22T12:00:01;100199.59;;;13.69;57.27
74327;BME280;62745;51.060;13.786;2023-02-22T12:02:48;100206.56;;;13.83;57.01
74327;BME280;62745;51.060;13.786;2023-02-22T12:08:45;100201.13;;;14.28;56.09
74327;BME280;62745;51.060;13.786;2023-02-22T12:14:29;100203.59;;;13.98;57.00
74327;BME280;62745;51.060;13.786;2023-02-22T12:19:53;100209.00;;;13.92;56.58
74327;BME280;62745;51.060;13.786;2023-02-22T12:22:28;100199.88;;;13.93;56.38
74327;BME280;62745;51.060;13.786;2023-02-22T12:25:06;100195.44;;;13.80;57.41
74327;BME280;62745;51.060;13.786;2023-02-22T12:27:43;100193.56;;;13.80;57.79
74327;BME280;62745;51.060;13.786;2023-02-22T12:30:14;100194.28;;;14.01;58.00
74327;BME280;62745;51.060;13.786;2023-02-22T12:32:45;100187.88;;;14.02;55.88
74327;BME280;62745;51.060;13.786;2023-02-22T12:35:16;100185.25;;;13.89;56.46
74327;BME280;62745;51.060;13.786;2023-02-22T12:40:23;100189.66;;;13.76;56.97
74327;BME280;62745;51.060;13.786;2023-02-22T12:45:50;100180.22;;;13.67;57.11
74327;BME280;62745;51.060;13.786;2023-02-22T12:50:58;100186.84;;;13.58;57.21
74327;BME280;62745;51.060;13.786;2023-02-22T12:53:30;100176.31;;;13.57;58.05
74327;BME280;62745;51.060;13.786;2023-02-22T12:56:19;100188.81;;;13.76;57.24
74327;BME280;62745;51.060;13.786;2023-02-22T12:59:07;100185.75;;;13.79;58.52
74327;BME280;62745;51.060;13.786;2023-02-22T13:01:46;100179.31;;;13.80;58.58
74327;BME280;62745;51.060;13.786;2023-02-22T13:04:14;100181.22;;;13.73;58.24
74327;BME280;62745;51.060;13.786;2023-02-22T13:07:09;100177.59;;;13.92;57.47
74327;BME280;62745;51.060;13.786;2023-02-22T13:09:49;100179.13;;;13.75;57.80
74327;BME280;62745;51.060;13.786;2023-02-22T13:12:47;100177.09;;;13.70;58.36
74327;BME280;62745;51.060;13.786;2023-02-22T13:18:20;100169.63;;;13.79;58.43
74327;BME280;62745;51.060;13.786;2023-02-22T13:21:03;100173.84;;;13.62;58.88
74327;BME280;62745;51.060;13.786;2023-02-22T13:26:10;100170.63;;;13.84;57.97
74327;BME280;62745;51.060;13.786;2023-02-22T13:28:40;100164.03;;;13.80;57.22
74327;BME280;62745;51.060;13.786;2023-02-22T13:37:10;100157.44;;;13.76;57.90
74327;BME280;62745;51.060;13.786;2023-02-22T13:40:02;100172.03;;;13.87;57.55
74327;BME280;62745;51.060;13.786;2023-02-22T13:42:46;100164.88;;;13.81;58.36
74327;BME280;62745;51.060;13.786;2023-02-22T13:45:31;100160.13;;;13.76;57.89
74327;BME280;62745;51.060;13.786;2023-02-22T13:53:15;100159.66;;;13.48;60.22
74327;BME280;62745;51.060;13.786;2023-02-22T13:55:47;100167.53;;;13.36;60.22
74327;BME280;62745;51.060;13.786;2023-02-22T13:58:15;100167.16;;;13.26;60.57
74327;BME280;62745;51.060;13.786;2023-02-22T14:00:45;100170.25;;;13.23;60.42
74327;BME280;62745;51.060;13.786;2023-02-22T14:10:58;100163.25;;;13.09;61.85
74327;BME280;62745;51.060;13.786;2023-02-22T14:13:28;100162.66;;;13.13;61.26
74327;BME280;62745;51.060;13.786;2023-02-22T14:18:24;100160.38;;;13.10;62.47